createdAt,value
2019-03-26T00:01:44.102Z,6.90
2019-03-26T00:04:14.481Z,6.90
2019-03-26T00:06:44.848Z,6.90
2019-03-26T00:09:14.210Z,6.90
2019-03-26T00:11:43.552Z,6.90
2019-03-26T00:14:13.015Z,6.90
2019-03-26T00:16:42.404Z,6.90
2019-03-26T00:19:11.743Z,6.80
2019-03-26T00:21:41.066Z,6.80
2019-03-26T00:24:10.419Z,6.90
2019-03-26T00:26:39.725Z,6.80
2019-03-26T00:29:09.327Z,6.80
2019-03-26T00:31:38.670Z,6.90
2019-03-26T00:34:18.786Z,6.90
2019-03-26T00:36:38.297Z,6.80
2019-03-26T00:39:07.703Z,6.80
2019-03-26T00:41:37.304Z,6.80
2019-03-26T00:44:06.641Z,6.70
2019-03-26T00:46:36.001Z,6.70
2019-03-26T00:49:05.460Z,6.70
2019-03-26T00:51:35.593Z,6.70
2019-03-26T00:54:05.649Z,6.60
2019-03-26T00:56:35.898Z,6.60
2019-03-26T00:59:06.007Z,6.60
2019-03-26T01:01:36.398Z,6.70
2019-03-26T01:04:06.359Z,6.60
2019-03-26T01:06:36.467Z,6.60
2019-03-26T01:09:06.936Z,6.70
2019-03-26T01:11:37.461Z,6.70
2019-03-26T01:14:07.177Z,6.70
2019-03-26T01:16:37.264Z,6.70
2019-03-26T01:19:07.304Z,6.70
2019-03-26T01:21:37.644Z,6.60
2019-03-26T01:24:07.693Z,6.60
2019-03-26T01:26:37.971Z,6.60
2019-03-26T01:29:07.916Z,6.60
2019-03-26T01:31:38.149Z,6.50
2019-03-26T01:34:08.270Z,6.60
2019-03-26T01:36:38.472Z,6.50
2019-03-26T01:39:15.573Z,6.50
2019-03-26T01:41:45.012Z,6.50
2019-03-26T01:44:14.398Z,6.50
2019-03-26T01:46:43.752Z,6.50
2019-03-26T01:49:13.084Z,6.40
2019-03-26T01:51:42.393Z,6.50
2019-03-26T01:54:11.726Z,6.50
2019-03-26T01:56:41.060Z,6.50
2019-03-26T01:59:10.471Z,6.50
2019-03-26T02:01:40.077Z,6.50
2019-03-26T02:04:10.149Z,6.50
2019-03-26T02:06:40.259Z,6.50
2019-03-26T02:09:10.402Z,6.50
2019-03-26T02:11:40.654Z,6.50
2019-03-26T02:14:10.663Z,6.50
2019-03-26T02:16:40.899Z,6.50
2019-03-26T02:19:10.966Z,6.50
2019-03-26T02:21:41.336Z,6.50
2019-03-26T02:24:11.239Z,6.50
2019-03-26T02:26:41.505Z,6.50
2019-03-26T02:29:11.703Z,6.50
2019-03-26T02:31:41.907Z,6.50
2019-03-26T02:34:11.916Z,6.50
2019-03-26T02:36:42.225Z,6.40
2019-03-26T02:39:12.483Z,6.40
2019-03-26T02:41:42.501Z,6.40
2019-03-26T02:44:12.848Z,6.40
2019-03-26T02:46:42.750Z,6.40
2019-03-26T02:49:12.884Z,6.40
2019-03-26T02:51:43.308Z,6.40
2019-03-26T02:54:13.343Z,6.50
2019-03-26T02:56:43.419Z,6.50
2019-03-26T02:59:13.623Z,6.40
2019-03-26T03:01:43.687Z,6.40
2019-03-26T03:04:13.075Z,6.40
2019-03-26T03:06:42.406Z,6.40
2019-03-26T03:09:11.780Z,6.30
2019-03-26T03:11:41.166Z,6.40
2019-03-26T03:14:10.498Z,6.40
2019-03-26T03:16:39.811Z,6.30
2019-03-26T03:19:09.128Z,6.40
2019-03-26T03:21:38.428Z,6.30
2019-03-26T03:24:08.003Z,6.30
2019-03-26T03:26:37.321Z,6.30
2019-03-26T03:29:06.630Z,6.30
2019-03-26T03:31:35.953Z,6.40
2019-03-26T03:34:05.415Z,6.40
2019-03-26T03:36:34.739Z,6.40
2019-03-26T03:39:06.638Z,6.40
2019-03-26T03:41:36.000Z,6.40
2019-03-26T03:44:06.367Z,6.50
2019-03-26T03:46:35.939Z,6.40
2019-03-26T03:49:05.610Z,6.50
2019-03-26T03:51:36.467Z,6.50
2019-03-26T03:54:06.039Z,6.50
2019-03-26T03:56:37.388Z,6.40
2019-03-26T03:59:07.809Z,6.40
2019-03-26T04:01:37.050Z,6.30
2019-03-26T04:04:06.368Z,6.30
2019-03-26T04:06:35.697Z,6.40
2019-03-26T04:09:05.853Z,6.40
2019-03-26T04:11:35.188Z,6.40
2019-03-26T04:14:04.549Z,6.30
2019-03-26T04:16:33.891Z,6.30
2019-03-26T04:19:03.259Z,6.30
2019-03-26T04:21:32.592Z,6.30
2019-03-26T04:24:01.911Z,6.30
2019-03-26T04:26:31.559Z,6.30
2019-03-26T04:29:00.862Z,6.30
2019-03-26T04:31:30.195Z,6.30
2019-03-26T04:33:59.520Z,6.30
2019-03-26T04:36:28.883Z,6.30
2019-03-26T04:38:58.281Z,6.30
2019-03-26T04:41:27.643Z,6.30
2019-03-26T04:43:58.034Z,6.30
2019-03-26T04:46:28.308Z,6.30
2019-03-26T04:48:58.581Z,6.30
2019-03-26T04:51:27.923Z,6.30
2019-03-26T04:53:57.282Z,6.30
2019-03-26T04:56:26.599Z,6.30
2019-03-26T04:58:56.018Z,6.30
2019-03-26T05:01:25.346Z,6.30
2019-03-26T05:03:54.766Z,6.30
2019-03-26T05:06:37.203Z,6.30
2019-03-26T05:08:55.304Z,6.30
2019-03-26T05:11:24.699Z,6.30
2019-03-26T05:13:54.064Z,6.20
2019-03-26T05:16:23.410Z,6.30
2019-03-26T05:18:52.740Z,6.20
2019-03-26T05:21:22.085Z,6.20
2019-03-26T05:23:52.169Z,6.30
2019-03-26T05:26:22.220Z,6.20
2019-03-26T05:28:54.208Z,6.20
2019-03-26T05:31:23.542Z,6.20
2019-03-26T05:33:52.876Z,6.20
2019-03-26T05:36:22.455Z,6.30
2019-03-26T05:38:52.393Z,6.30
2019-03-26T05:41:22.397Z,6.20
2019-03-26T05:43:52.588Z,6.20
2019-03-26T05:46:22.540Z,6.30
2019-03-26T05:48:52.589Z,6.30
2019-03-26T05:51:22.539Z,6.30
2019-03-26T05:53:52.601Z,6.30
2019-03-26T05:56:22.572Z,6.30
2019-03-26T05:58:53.019Z,6.40
2019-03-26T06:01:23.216Z,6.50
2019-03-26T06:03:52.786Z,6.50
2019-03-26T06:06:22.803Z,6.50
2019-03-26T06:08:54.802Z,6.50
2019-03-26T06:11:24.129Z,6.50
2019-03-26T06:13:53.456Z,6.50
2019-03-26T06:16:22.886Z,6.50
2019-03-26T06:18:53.069Z,6.50
2019-03-26T06:21:22.995Z,6.60
2019-03-26T06:23:53.908Z,6.60
2019-03-26T06:26:23.287Z,6.60
2019-03-26T06:28:53.097Z,6.60
2019-03-26T06:31:23.086Z,6.70
2019-03-26T06:33:53.174Z,6.70
2019-03-26T06:36:23.174Z,6.70
2019-03-26T06:38:53.170Z,6.80
2019-03-26T06:41:23.183Z,6.70
2019-03-26T06:43:53.232Z,6.80
2019-03-26T06:46:23.307Z,6.90
2019-03-26T06:48:53.335Z,6.90
2019-03-26T06:51:23.359Z,6.90
2019-03-26T06:53:53.358Z,6.90
2019-03-26T06:56:23.403Z,7.00
2019-03-26T06:58:53.420Z,7.00
2019-03-26T07:01:23.419Z,7.00
2019-03-26T07:03:53.437Z,7.00
2019-03-26T07:06:23.431Z,7.10
2019-03-26T07:08:53.481Z,7.30
2019-03-26T07:11:23.516Z,7.30
2019-03-26T07:13:53.638Z,7.30
2019-03-26T07:16:23.590Z,7.40
2019-03-26T07:18:53.830Z,7.30
2019-03-26T07:21:23.750Z,7.40
2019-03-26T07:23:53.740Z,7.40
2019-03-26T07:26:23.777Z,7.40
2019-03-26T07:28:56.645Z,7.50
2019-03-26T07:31:24.766Z,7.50
2019-03-26T07:33:54.091Z,7.50
2019-03-26T07:36:24.179Z,7.60
2019-03-26T07:38:53.906Z,7.70
2019-03-26T07:41:24.874Z,7.80
2019-03-26T07:43:54.330Z,7.90
2019-03-26T07:46:24.002Z,8.10
2019-03-26T07:48:54.089Z,8.10
2019-03-26T07:51:24.159Z,8.00
2019-03-26T07:53:54.192Z,8.00
2019-03-26T07:56:24.128Z,8.10
2019-03-26T07:58:54.174Z,8.40
2019-03-26T08:01:24.299Z,8.60
2019-03-26T08:03:54.225Z,9.00
2019-03-26T08:06:24.304Z,9.50
2019-03-26T08:08:55.707Z,9.80
2019-03-26T08:11:25.124Z,10.70
2019-03-26T08:13:54.537Z,11.90
2019-03-26T08:16:24.455Z,12.20
2019-03-26T08:18:54.490Z,12.50
2019-03-26T08:21:24.795Z,12.30
2019-03-26T08:23:54.566Z,12.10
2019-03-26T08:26:24.654Z,11.70
2019-03-26T08:28:54.687Z,11.40
2019-03-26T08:31:24.686Z,11.30
2019-03-26T08:33:54.656Z,11.50
2019-03-26T08:36:24.694Z,11.70
2019-03-26T08:38:54.745Z,12.60
2019-03-26T08:41:31.201Z,13.10
2019-03-26T08:43:58.797Z,13.30
2019-03-26T08:46:28.215Z,13.20
2019-03-26T08:48:57.579Z,12.90
2019-03-26T08:51:28.085Z,12.50
2019-03-26T08:53:57.433Z,11.90
2019-03-26T08:56:26.733Z,11.60
2019-03-26T08:58:56.096Z,11.20
2019-03-26T09:01:25.405Z,11.10
2019-03-26T09:03:55.033Z,11.40
2019-03-26T09:06:25.096Z,11.80
2019-03-26T09:08:55.049Z,12.50
2019-03-26T09:11:25.136Z,13.30
2019-03-26T09:13:55.142Z,13.80
2019-03-26T09:16:25.403Z,13.80
2019-03-26T09:18:56.653Z,13.70
2019-03-26T09:21:27.082Z,13.40
2019-03-26T09:23:56.572Z,13.00
2019-03-26T09:26:26.004Z,12.40
2019-03-26T09:28:55.349Z,11.90
2019-03-26T09:31:25.279Z,11.30
2019-03-26T09:33:55.450Z,10.60
2019-03-26T09:36:25.440Z,10.30
2019-03-26T09:38:55.444Z,9.80
2019-03-26T09:41:25.617Z,9.60
2019-03-26T09:43:55.480Z,9.50
2019-03-26T09:46:25.763Z,9.30
2019-03-26T09:48:55.547Z,9.10
2019-03-26T09:51:25.640Z,9.00
2019-03-26T09:53:55.688Z,8.90
2019-03-26T09:56:30.613Z,8.80
2019-03-26T09:58:56.720Z,8.70
2019-03-26T10:01:26.015Z,8.80
2019-03-26T10:03:55.826Z,9.00
2019-03-26T10:06:25.894Z,9.20
2019-03-26T10:09:04.940Z,9.50
2019-03-26T10:11:40.767Z,9.90
2019-03-26T10:14:20.554Z,10.20
2019-03-26T10:16:45.389Z,10.60
2019-03-26T10:19:16.996Z,10.80
2019-03-26T10:21:46.924Z,11.00
2019-03-26T10:24:20.101Z,11.20
2019-03-26T10:26:50.089Z,11.20
2019-03-26T10:29:30.021Z,11.10
2019-03-26T10:31:51.219Z,10.90
2019-03-26T10:34:20.636Z,11.00
2019-03-26T10:36:50.210Z,11.40
2019-03-26T10:39:19.793Z,11.50
2019-03-26T10:41:49.113Z,11.80
2019-03-26T10:44:18.433Z,12.40
2019-03-26T10:46:47.746Z,12.90
2019-03-26T10:49:17.078Z,13.20
2019-03-26T10:51:46.438Z,13.70
2019-03-26T10:54:15.810Z,13.60
2019-03-26T10:56:45.113Z,13.50
2019-03-26T10:59:14.521Z,13.40
2019-03-26T11:01:43.856Z,13.80
2019-03-26T11:04:13.218Z,13.60
2019-03-26T11:06:42.717Z,14.20
2019-03-26T11:09:21.388Z,14.60
2019-03-26T11:11:42.385Z,15.10
2019-03-26T11:14:11.655Z,15.20
2019-03-26T11:16:40.980Z,14.80
2019-03-26T11:19:10.296Z,14.10
2019-03-26T11:21:39.604Z,13.20
2019-03-26T11:24:08.937Z,12.70
2019-03-26T11:26:38.302Z,12.40
2019-03-26T11:29:07.738Z,12.30
2019-03-26T11:31:37.069Z,12.40
2019-03-26T11:34:06.448Z,12.60
2019-03-26T11:36:35.918Z,12.50
2019-03-26T11:39:07.625Z,12.50
2019-03-26T11:41:37.065Z,12.60
2019-03-26T11:44:06.418Z,12.60
2019-03-26T11:46:35.963Z,12.50
2019-03-26T11:49:05.365Z,12.10
2019-03-26T11:51:34.726Z,12.10
2019-03-26T11:54:04.123Z,11.70
2019-03-26T11:56:33.483Z,11.40
2019-03-26T11:59:02.807Z,11.00
2019-03-26T12:01:32.163Z,10.70
2019-03-26T12:04:01.561Z,10.60
2019-03-26T12:06:30.966Z,10.60
2019-03-26T12:09:00.378Z,10.70
2019-03-26T12:11:30.365Z,10.90
2019-03-26T12:13:59.671Z,11.00
2019-03-26T12:16:29.043Z,11.20
2019-03-26T12:18:58.428Z,11.20
2019-03-26T12:21:28.042Z,11.40
2019-03-26T12:23:57.610Z,11.40
2019-03-26T12:26:27.739Z,11.30
2019-03-26T12:28:58.779Z,11.30
2019-03-26T12:31:29.493Z,11.20
2019-03-26T12:34:01.061Z,11.10
2019-03-26T12:36:39.801Z,11.30
2019-03-26T12:39:01.479Z,11.40
2019-03-26T12:41:31.596Z,11.60
2019-03-26T12:44:00.860Z,11.90
2019-03-26T12:46:30.154Z,11.90
2019-03-26T12:49:00.473Z,11.90
2019-03-26T12:51:29.765Z,11.90
2019-03-26T12:53:59.126Z,12.10
2019-03-26T12:56:28.525Z,12.40
2019-03-26T12:58:59.107Z,12.10
2019-03-26T13:01:28.462Z,12.10
2019-03-26T13:04:11.702Z,11.90
2019-03-26T13:06:29.426Z,11.70
2019-03-26T13:09:04.721Z,11.40
2019-03-26T13:11:34.301Z,11.30
2019-03-26T13:14:04.838Z,11.00
2019-03-26T13:16:34.144Z,10.90
2019-03-26T13:19:03.494Z,11.00
2019-03-26T13:21:32.826Z,10.90
2019-03-26T13:24:02.167Z,11.00
2019-03-26T13:26:31.521Z,11.00
2019-03-26T13:29:00.850Z,10.90
2019-03-26T13:31:30.219Z,10.90
2019-03-26T13:33:59.551Z,11.00
2019-03-26T13:36:28.939Z,10.70
2019-03-26T13:39:00.041Z,10.40
2019-03-26T13:41:29.398Z,10.10
2019-03-26T13:43:58.797Z,9.90
2019-03-26T13:46:28.582Z,9.70
2019-03-26T13:48:58.635Z,9.70
2019-03-26T13:51:28.764Z,9.70
2019-03-26T13:53:58.770Z,9.90
2019-03-26T13:56:29.458Z,10.10
2019-03-26T13:58:58.794Z,10.20
2019-03-26T14:01:28.862Z,10.30
2019-03-26T14:03:58.878Z,10.50
2019-03-26T14:06:28.856Z,10.60
2019-03-26T14:08:58.907Z,10.80
2019-03-26T14:11:28.930Z,10.90
2019-03-26T14:13:58.940Z,10.90
2019-03-26T14:16:29.048Z,11.00
2019-03-26T14:18:59.111Z,11.10
2019-03-26T14:21:29.001Z,11.10
2019-03-26T14:23:58.943Z,11.00
2019-03-26T14:26:29.122Z,10.90
2019-03-26T14:28:59.165Z,10.90
2019-03-26T14:31:29.091Z,10.90
2019-03-26T14:33:59.100Z,10.80
2019-03-26T14:36:29.168Z,10.70
2019-03-26T14:39:01.317Z,10.70
2019-03-26T14:41:32.550Z,10.50
2019-03-26T14:44:01.907Z,10.40
2019-03-26T14:46:31.239Z,10.40
2019-03-26T14:49:01.630Z,10.20
2019-03-26T14:51:30.985Z,10.30
2019-03-26T14:54:00.297Z,10.20
2019-03-26T14:56:31.003Z,10.30
2019-03-26T14:59:00.358Z,10.30
2019-03-26T15:01:29.762Z,10.40
2019-03-26T15:03:59.423Z,10.30
2019-03-26T15:06:29.300Z,10.40
2019-03-26T15:08:59.402Z,10.50
2019-03-26T15:11:29.327Z,10.50
2019-03-26T15:13:59.483Z,10.60
2019-03-26T15:16:29.492Z,10.60
2019-03-26T15:19:00.417Z,10.70
2019-03-26T15:21:29.772Z,10.80
2019-03-26T15:24:00.120Z,10.70
2019-03-26T15:26:29.750Z,10.50
2019-03-26T15:28:59.460Z,10.70
2019-03-26T15:31:29.455Z,10.70
2019-03-26T15:33:59.501Z,10.70
2019-03-26T15:36:29.516Z,10.60
2019-03-26T15:38:59.522Z,10.50
2019-03-26T15:41:30.443Z,10.50
2019-03-26T15:43:59.987Z,10.40
2019-03-26T15:46:29.594Z,10.40
2019-03-26T15:49:03.297Z,10.50
2019-03-26T15:51:32.709Z,10.50
2019-03-26T15:54:02.071Z,10.40
2019-03-26T15:56:31.398Z,10.50
2019-03-26T15:59:00.726Z,10.50
2019-03-26T16:01:30.091Z,10.60
2019-03-26T16:03:59.674Z,10.60
2019-03-26T16:06:29.665Z,10.70
2019-03-26T16:08:59.778Z,10.70
2019-03-26T16:11:35.496Z,10.60
2019-03-26T16:14:00.989Z,10.50
2019-03-26T16:16:30.381Z,10.50
2019-03-26T16:19:00.811Z,10.40
2019-03-26T16:21:30.303Z,10.30
2019-03-26T16:23:59.765Z,10.20
2019-03-26T16:26:29.898Z,10.10
2019-03-26T16:29:00.227Z,10.00
2019-03-26T16:31:30.216Z,9.90
2019-03-26T16:34:00.480Z,9.80
2019-03-26T16:36:30.532Z,9.90
2019-03-26T16:39:00.753Z,9.90
2019-03-26T16:41:31.733Z,9.90
2019-03-26T16:44:01.071Z,9.90
2019-03-26T16:46:31.150Z,9.70
2019-03-26T16:49:01.646Z,9.70
2019-03-26T16:51:31.569Z,9.70
2019-03-26T16:54:01.665Z,9.60
2019-03-26T16:56:31.973Z,9.50
2019-03-26T16:59:02.083Z,9.50
2019-03-26T17:01:32.152Z,9.50
2019-03-26T17:04:02.414Z,9.40
2019-03-26T17:06:32.717Z,9.40
2019-03-26T17:09:03.806Z,9.30
2019-03-26T17:11:33.529Z,9.30
2019-03-26T17:14:03.267Z,9.30
2019-03-26T17:16:33.354Z,9.20
2019-03-26T17:19:03.599Z,9.20
2019-03-26T17:21:33.723Z,9.20
2019-03-26T17:24:03.959Z,9.20
2019-03-26T17:26:34.220Z,9.10
2019-03-26T17:29:04.452Z,9.10
2019-03-26T17:31:34.567Z,9.10
2019-03-26T17:34:04.848Z,9.10
2019-03-26T17:36:35.228Z,9.00
2019-03-26T17:39:07.472Z,9.00
2019-03-26T17:41:36.792Z,9.00
2019-03-26T17:44:06.168Z,9.00
2019-03-26T17:46:35.483Z,9.00
2019-03-26T17:49:05.651Z,9.00
2019-03-26T17:51:35.801Z,9.00
2019-03-26T17:54:06.060Z,8.90
2019-03-26T17:56:36.058Z,8.90
2019-03-26T17:59:06.330Z,8.90
2019-03-26T18:01:36.496Z,8.90
2019-03-26T18:04:06.613Z,8.90
2019-03-26T18:06:36.755Z,8.80
2019-03-26T18:09:07.042Z,8.80
2019-03-26T18:11:36.969Z,8.90
2019-03-26T18:14:07.182Z,8.80
2019-03-26T18:16:37.312Z,8.80
2019-03-26T18:19:07.570Z,8.80
2019-03-26T18:21:50.564Z,8.80
2019-03-26T18:24:08.653Z,8.80
2019-03-26T18:26:37.943Z,8.80
2019-03-26T18:29:08.153Z,8.80
2019-03-26T18:31:38.111Z,8.80
2019-03-26T18:34:08.522Z,8.80
2019-03-26T18:36:38.478Z,8.70
2019-03-26T18:39:08.900Z,8.70
2019-03-26T18:41:38.919Z,8.70
2019-03-26T18:44:08.928Z,8.70
2019-03-26T18:46:39.158Z,8.70
2019-03-26T18:49:09.328Z,8.70
2019-03-26T18:51:39.373Z,8.70
2019-03-26T18:54:10.040Z,8.60
2019-03-26T18:56:39.665Z,8.60
2019-03-26T18:59:09.907Z,8.60
2019-03-26T19:01:40.074Z,8.60
2019-03-26T19:04:10.308Z,8.50
2019-03-26T19:06:40.321Z,8.50
2019-03-26T19:09:10.554Z,8.50
2019-03-26T19:11:40.634Z,8.50
2019-03-26T19:14:10.885Z,8.50
2019-03-26T19:16:40.926Z,8.40
2019-03-26T19:19:16.378Z,8.40
2019-03-26T19:21:45.755Z,8.40
2019-03-26T19:24:15.192Z,8.40
2019-03-26T19:26:44.689Z,8.40
2019-03-26T19:29:14.072Z,8.40
2019-03-26T19:31:43.490Z,8.40
2019-03-26T19:34:12.975Z,8.30
2019-03-26T19:36:42.391Z,8.30
2019-03-26T19:39:11.814Z,8.30
2019-03-26T19:41:41.559Z,8.30
2019-03-26T19:44:11.624Z,8.30
2019-03-26T19:46:41.531Z,8.30
2019-03-26T19:49:12.623Z,8.20
2019-03-26T19:51:42.044Z,8.20
2019-03-26T19:54:11.640Z,8.20
2019-03-26T19:56:41.662Z,8.20
2019-03-26T19:59:19.790Z,8.20
2019-03-26T20:01:49.410Z,8.20
2019-03-26T20:04:18.993Z,8.20
2019-03-26T20:06:48.336Z,8.20
2019-03-26T20:09:18.736Z,8.20
2019-03-26T20:11:48.174Z,8.20
2019-03-26T20:14:17.568Z,8.20
2019-03-26T20:16:46.942Z,8.10
2019-03-26T20:19:16.295Z,8.10
2019-03-26T20:21:45.741Z,8.20
2019-03-26T20:24:15.080Z,8.20
2019-03-26T20:26:44.427Z,8.20
2019-03-26T20:29:20.616Z,8.20
2019-03-26T20:31:51.205Z,8.20
2019-03-26T20:34:20.546Z,8.20
2019-03-26T20:36:49.924Z,8.20
2019-03-26T20:39:25.742Z,8.20
2019-03-26T20:41:56.183Z,8.20
2019-03-26T20:44:25.489Z,8.20
2019-03-26T20:46:54.807Z,8.20
2019-03-26T20:49:24.212Z,8.10
2019-03-26T20:51:53.669Z,8.10
2019-03-26T20:54:23.093Z,8.10
2019-03-26T20:56:52.763Z,8.10
2019-03-26T20:59:22.383Z,8.10
2019-03-26T21:01:51.790Z,8.10
2019-03-26T21:04:21.444Z,8.10
2019-03-26T21:06:50.873Z,8.00
2019-03-26T21:09:20.239Z,8.00
2019-03-26T21:11:49.719Z,8.00
2019-03-26T21:14:19.079Z,8.00
2019-03-26T21:16:48.513Z,7.90
2019-03-26T21:19:17.864Z,7.90
2019-03-26T21:21:47.184Z,7.90
2019-03-26T21:24:16.599Z,7.90
2019-03-26T21:26:46.064Z,7.90
2019-03-26T21:29:15.479Z,7.90
2019-03-26T21:31:45.105Z,7.90
2019-03-26T21:34:14.477Z,7.90
2019-03-26T21:36:43.903Z,7.80
2019-03-26T21:39:13.274Z,7.80
2019-03-26T21:41:43.011Z,7.80
2019-03-26T21:44:12.664Z,7.80
2019-03-26T21:46:42.021Z,7.70
2019-03-26T21:49:11.357Z,7.70
2019-03-26T21:51:40.694Z,7.70
2019-03-26T21:54:10.021Z,7.70
2019-03-26T21:56:39.413Z,7.70
2019-03-26T21:59:08.871Z,7.70
2019-03-26T22:01:38.204Z,7.70
2019-03-26T22:04:07.571Z,7.70
2019-03-26T22:06:36.954Z,7.70
2019-03-26T22:09:07.847Z,7.70
2019-03-26T22:11:49.298Z,7.70
2019-03-26T22:14:17.994Z,7.60
2019-03-26T22:16:39.668Z,7.60
2019-03-26T22:19:08.986Z,7.60
2019-03-26T22:21:38.318Z,7.70
2019-03-26T22:24:07.638Z,7.70
2019-03-26T22:26:37.000Z,7.60
2019-03-26T22:29:06.803Z,7.60
2019-03-26T22:31:36.148Z,7.50
2019-03-26T22:34:05.488Z,7.50
2019-03-26T22:36:34.925Z,7.50
2019-03-26T22:39:05.882Z,7.50
2019-03-26T22:41:35.322Z,7.40
2019-03-26T22:44:04.831Z,7.40
2019-03-26T22:46:34.142Z,7.30
2019-03-26T22:49:03.542Z,7.30
2019-03-26T22:51:32.855Z,7.30
2019-03-26T22:54:02.184Z,7.30
2019-03-26T22:56:31.566Z,7.30
2019-03-26T22:59:01.976Z,7.30
2019-03-26T23:01:31.451Z,7.30
2019-03-26T23:04:00.898Z,7.30
2019-03-26T23:06:30.376Z,7.20
2019-03-26T23:08:59.761Z,7.20
2019-03-26T23:11:30.754Z,7.30
2019-03-26T23:14:00.095Z,7.30
2019-03-26T23:16:30.079Z,7.20
2019-03-26T23:18:59.453Z,7.20
2019-03-26T23:21:28.891Z,7.20
2019-03-26T23:23:58.219Z,7.20
2019-03-26T23:26:27.615Z,7.10
2019-03-26T23:28:57.021Z,7.10
2019-03-26T23:31:26.362Z,7.10
2019-03-26T23:33:55.823Z,7.10
2019-03-26T23:36:25.176Z,7.10
2019-03-26T23:38:54.576Z,7.10
2019-03-26T23:41:23.964Z,7.10
2019-03-26T23:43:53.415Z,7.10
2019-03-26T23:46:22.766Z,7.10
2019-03-26T23:48:52.088Z,7.10
2019-03-26T23:51:21.398Z,7.00
2019-03-26T23:53:50.719Z,7.00
2019-03-26T23:56:20.057Z,7.00
2019-03-26T23:58:49.445Z,7.00
